Time;durP1;ratioP1;P1;durP2;ratioP2;P2;SDS_P1;SDS_P2;PMS_P1;PMS_P2;Temp;Humidity;BMP_temperature;BMP_pressure;BME280_temperature;BME280_humidity;BME280_pressure;Samples;Min_cycle;Max_cycle;Signal;HPM_P1;HPM_P2
2023/01/29 00:01:58;;;;;;;4.77;2.67;;;1.30;99.90;;;;;;4981534;29;20443;-58
2023/01/29 00:04:27;;;;;;;5.30;2.60;;;1.20;99.90;;;;;;4981092;29;20478;-58
2023/01/29 00:06:54;;;;;;;6.60;3.50;;;1.20;99.90;;;;;;4981131;29;20447;-55
2023/01/29 00:09:20;;;;;;;5.23;3.70;;;1.20;99.90;;;;;;4981232;29;20470;-53
2023/01/29 00:11:47;;;;;;;6.43;3.70;;;1.20;99.90;;;;;;4981254;29;20428;-54
2023/01/29 00:14:14;;;;;;;6.77;4.03;;;1.30;99.90;;;;;;4981202;29;20431;-54
2023/01/29 00:16:41;;;;;;;4.57;2.87;;;1.30;99.90;;;;;;4981093;29;20486;-53
2023/01/29 00:19:08;;;;;;;8.57;3.80;;;1.20;99.90;;;;;;4981108;29;20471;-54
2023/01/29 00:21:36;;;;;;;4.77;3.60;;;1.20;99.90;;;;;;4981266;29;20495;-54
2023/01/29 00:24:03;;;;;;;4.20;3.30;;;1.30;99.90;;;;;;4981088;29;20424;-57
2023/01/29 00:26:31;;;;;;;5.60;3.63;;;1.20;99.90;;;;;;4981126;29;20454;-53
2023/01/29 00:28:59;;;;;;;6.67;3.43;;;1.20;99.90;;;;;;4981035;28;20540;-59
2023/01/29 00:31:26;;;;;;;9.83;5.67;;;1.20;99.90;;;;;;4981007;29;20448;-55
2023/01/29 00:33:57;;;;;;;5.47;3.60;;;1.20;99.90;;;;;;4980469;29;20467;-55
2023/01/29 00:36:26;;;;;;;8.70;4.40;;;1.20;99.90;;;;;;4981479;29;20432;-58
2023/01/29 00:39:01;;;;;;;10.60;4.10;;;1.20;99.90;;;;;;4981561;29;20440;-55
2023/01/29 00:47:03;;;;;;;7.20;4.40;;;1.20;99.90;;;;;;4980035;28;20514;-53
2023/01/29 00:49:30;;;;;;;6.53;3.93;;;1.20;99.90;;;;;;4980389;29;20466;-52
2023/01/29 00:54:41;;;;;;;6.43;3.87;;;1.20;99.90;;;;;;4976887;29;20456;-56
2023/01/29 00:57:08;;;;;;;6.17;4.53;;;1.30;99.90;;;;;;4980495;29;20435;-54
2023/01/29 00:59:35;;;;;;;7.07;4.23;;;1.30;99.90;;;;;;4979890;29;20499;-53
2023/01/29 01:04:47;;;;;;;7.07;4.47;;;1.30;99.90;;;;;;4980672;29;20527;-56
2023/01/29 01:07:17;;;;;;;8.03;3.67;;;1.30;99.90;;;;;;4980355;29;20435;-56
2023/01/29 01:12:32;;;;;;;8.93;3.93;;;1.30;99.90;;;;;;4980808;29;20415;-54
2023/01/29 01:14:59;;;;;;;7.90;4.73;;;1.30;99.90;;;;;;4980066;29;20440;-54
2023/01/29 01:17:26;;;;;;;5.37;4.57;;;1.30;99.90;;;;;;4980082;29;20487;-56
2023/01/29 01:19:52;;;;;;;9.87;4.67;;;1.40;99.90;;;;;;4979943;29;20439;-51
2023/01/29 01:22:19;;;;;;;15.80;5.07;;;1.40;99.90;;;;;;4980153;29;20454;-55
2023/01/29 01:24:48;;;;;;;8.70;5.10;;;1.40;99.90;;;;;;4980217;29;20459;-53
2023/01/29 01:27:15;;;;;;;7.43;4.80;;;1.40;99.90;;;;;;4980300;29;20506;-52
2023/01/29 01:29:42;;;;;;;6.40;4.80;;;1.40;99.90;;;;;;4979747;29;20491;-58
2023/01/29 01:32:09;;;;;;;7.97;5.70;;;1.50;99.90;;;;;;4979626;29;20468;-54
2023/01/29 01:34:35;;;;;;;8.20;5.30;;;1.50;99.90;;;;;;4979503;29;20475;-57
2023/01/29 01:37:10;;;;;;;8.20;4.83;;;1.50;99.90;;;;;;4979881;29;20519;-55
2023/01/29 01:39:36;;;;;;;11.50;5.83;;;1.50;99.90;;;;;;4979997;29;20480;-60
2023/01/29 01:42:11;;;;;;;9.00;4.83;;;1.50;99.90;;;;;;4979548;29;20483;-54
2023/01/29 01:44:57;;;;;;;7.73;4.90;;;1.50;99.90;;;;;;4979734;29;20432;-55
2023/01/29 01:47:34;;;;;;;6.60;5.10;;;1.60;99.90;;;;;;4979120;29;20555;-54
2023/01/29 01:50:08;;;;;;;8.20;5.00;;;1.60;99.90;;;;;;4979491;29;20464;-54
2023/01/29 01:52:38;;;;;;;12.00;4.30;;;1.60;99.90;;;;;;4979566;29;20497;-56
2023/01/29 01:55:06;;;;;;;11.53;6.03;;;1.60;99.90;;;;;;4979869;29;20454;-56
2023/01/29 01:57:34;;;;;;;15.07;5.60;;;1.60;99.90;;;;;;4979641;28;20444;-53
2023/01/29 02:00:11;;;;;;;8.50;5.50;;;1.60;99.90;;;;;;4978675;29;20471;-56
2023/01/29 02:10:56;;;;;;;9.20;4.50;;;1.60;99.90;;;;;;4979240;29;20475;-54
2023/01/29 02:13:24;;;;;;;8.53;5.93;;;1.60;99.90;;;;;;4979075;29;20443;-57
2023/01/29 02:15:51;;;;;;;5.57;4.07;;;1.60;99.90;;;;;;4978721;29;20463;-58
2023/01/29 02:18:21;;;;;;;7.27;4.67;;;1.60;99.90;;;;;;4978803;29;20472;-55
2023/01/29 02:21:07;;;;;;;11.93;4.80;;;1.60;99.90;;;;;;4978769;29;20428;-55
2023/01/29 02:24:13;;;;;;;7.53;4.63;;;1.60;99.90;;;;;;4978804;29;20447;-56
2023/01/29 02:27:07;;;;;;;11.50;6.83;;;1.60;99.90;;;;;;4953909;29;20439;-54
2023/01/29 02:29:47;;;;;;;6.93;4.30;;;1.60;99.90;;;;;;4978210;29;20431;-55
2023/01/29 02:32:28;;;;;;;9.90;5.67;;;1.60;99.90;;;;;;4978246;29;20440;-55
2023/01/29 02:35:28;;;;;;;7.27;5.50;;;1.60;99.90;;;;;;4978236;29;20416;-55
2023/01/29 02:38:01;;;;;;;9.70;5.37;;;1.60;99.90;;;;;;4978682;29;20436;-58
2023/01/29 02:40:32;;;;;;;17.77;6.23;;;1.70;99.90;;;;;;4978335;29;20436;-55
2023/01/29 02:43:08;;;;;;;5.87;3.83;;;1.60;99.90;;;;;;4978562;29;20507;-58
2023/01/29 02:45:44;;;;;;;10.17;5.37;;;1.50;99.90;;;;;;4978354;29;20432;-53
2023/01/29 02:48:17;;;;;;;7.10;4.90;;;1.50;99.90;;;;;;4978817;29;20464;-57
2023/01/29 02:50:49;;;;;;;6.03;4.23;;;1.60;99.90;;;;;;4978163;29;20504;-54
2023/01/29 02:53:20;;;;;;;9.10;4.87;;;1.50;99.90;;;;;;4978458;29;20443;-54
2023/01/29 02:55:55;;;;;;;8.17;4.53;;;1.50;99.90;;;;;;4978123;29;20428;-54
2023/01/29 02:58:31;;;;;;;9.07;5.50;;;1.60;99.90;;;;;;4978569;29;20455;-55
2023/01/29 03:01:04;;;;;;;7.13;5.17;;;1.50;99.90;;;;;;4978294;29;20506;-57
2023/01/29 03:03:36;;;;;;;10.70;5.90;;;1.50;99.90;;;;;;4977706;29;20448;-57
2023/01/29 03:06:07;;;;;;;7.77;4.93;;;1.50;99.90;;;;;;4978274;29;20443;-56
2023/01/29 03:08:41;;;;;;;11.10;5.50;;;1.50;99.90;;;;;;4978401;29;20408;-56
2023/01/29 03:11:14;;;;;;;8.20;4.37;;;1.60;99.90;;;;;;4977638;28;20467;-55
2023/01/29 03:13:45;;;;;;;8.13;4.90;;;1.60;99.90;;;;;;4978291;29;20510;-58
2023/01/29 03:16:20;;;;;;;8.10;4.37;;;1.60;99.90;;;;;;4978111;29;20447;-57
2023/01/29 03:18:52;;;;;;;9.43;4.73;;;1.60;99.90;;;;;;4978402;29;20462;-58
2023/01/29 03:32:34;;;;;;;7.93;5.00;;;1.50;99.90;;;;;;4977917;29;20458;-54
2023/01/29 03:35:05;;;;;;;10.97;5.80;;;1.50;99.90;;;;;;4977832;29;20432;-52
2023/01/29 03:37:36;;;;;;;10.10;5.70;;;1.50;99.90;;;;;;4977477;29;20491;-55
2023/01/29 03:40:05;;;;;;;10.20;6.00;;;1.50;99.90;;;;;;4978093;29;20436;-54
2023/01/29 03:42:44;;;;;;;12.80;5.83;;;1.60;99.90;;;;;;4978776;29;20458;-53
2023/01/29 03:45:18;;;;;;;9.73;5.70;;;1.60;99.90;;;;;;4978048;29;20412;-54
2023/01/29 03:47:50;;;;;;;7.23;4.60;;;1.60;99.90;;;;;;4978224;29;20415;-55
2023/01/29 03:50:30;;;;;;;6.87;4.47;;;1.60;99.90;;;;;;4978136;29;20519;-50
2023/01/29 03:53:07;;;;;;;11.70;7.00;;;1.60;99.90;;;;;;4978488;29;20440;-53
2023/01/29 03:55:41;;;;;;;8.03;5.80;;;1.60;99.90;;;;;;4978357;29;20475;-49
2023/01/29 03:58:21;;;;;;;14.47;6.37;;;1.60;99.90;;;;;;4978721;29;20459;-52
2023/01/29 04:00:54;;;;;;;12.10;6.30;;;1.50;99.90;;;;;;4978750;29;20456;-52
2023/01/29 04:03:29;;;;;;;10.47;5.07;;;1.50;99.90;;;;;;4978737;29;20412;-56
2023/01/29 04:06:08;;;;;;;8.83;5.47;;;1.60;99.90;;;;;;4978718;29;20432;-54
2023/01/29 04:08:40;;;;;;;8.20;4.77;;;1.60;99.90;;;;;;4978469;28;20542;-49
2023/01/29 04:11:12;;;;;;;12.07;6.07;;;1.60;99.90;;;;;;4978915;29;20932;-56
2023/01/29 04:13:40;;;;;;;9.03;5.33;;;1.50;99.90;;;;;;4978511;28;20486;-53
2023/01/29 04:16:11;;;;;;;8.97;5.73;;;1.50;99.90;;;;;;4978316;29;20442;-56
2023/01/29 04:18:40;;;;;;;9.30;6.17;;;1.50;99.90;;;;;;4978362;29;20440;-56
2023/01/29 04:21:07;;;;;;;10.37;5.83;;;1.50;99.90;;;;;;4978244;28;20450;-53
2023/01/29 04:23:34;;;;;;;14.30;6.30;;;1.50;99.90;;;;;;4981319;29;20440;-52
2023/01/29 04:26:32;;;;;;;11.83;5.63;;;1.50;99.90;;;;;;4980907;29;20475;-55
2023/01/29 04:29:16;;;;;;;10.33;6.23;;;1.60;99.90;;;;;;4980904;29;20428;-55
2023/01/29 04:31:50;;;;;;;8.90;5.20;;;1.60;99.90;;;;;;4981050;29;20464;-56
2023/01/29 04:34:25;;;;;;;8.80;5.10;;;1.60;99.90;;;;;;4981432;29;20433;-55
2023/01/29 04:37:10;;;;;;;9.67;5.20;;;1.60;99.90;;;;;;4981183;29;20435;-52
2023/01/29 04:39:44;;;;;;;11.10;6.60;;;1.60;99.90;;;;;;4981032;29;20498;-56
2023/01/29 04:42:19;;;;;;;7.33;4.83;;;1.60;99.90;;;;;;4980664;29;20408;-57
2023/01/29 04:44:55;;;;;;;9.03;4.43;;;1.60;99.90;;;;;;4981167;29;20482;-56
2023/01/29 04:47:32;;;;;;;6.43;4.93;;;1.50;99.90;;;;;;4981356;29;20442;-57
2023/01/29 04:50:10;;;;;;;7.10;5.10;;;1.50;99.90;;;;;;4980751;29;20428;-55
2023/01/29 04:52:47;;;;;;;13.07;7.20;;;1.40;99.90;;;;;;4980408;29;20428;-56
2023/01/29 04:55:20;;;;;;;13.23;7.30;;;1.40;99.90;;;;;;4980474;29;20416;-57
2023/01/29 04:57:54;;;;;;;13.23;6.20;;;1.50;99.90;;;;;;4980627;29;20482;-57
2023/01/29 05:00:27;;;;;;;12.60;5.67;;;1.50;99.90;;;;;;4980125;29;20475;-57
2023/01/29 05:02:55;;;;;;;11.13;6.87;;;1.50;99.90;;;;;;4980465;29;20451;-58
2023/01/29 05:05:24;;;;;;;17.67;8.00;;;1.50;99.90;;;;;;4980717;29;20499;-54
2023/01/29 05:07:54;;;;;;;7.83;5.10;;;1.50;99.90;;;;;;4980307;29;20435;-57
2023/01/29 05:10:23;;;;;;;7.80;5.90;;;1.60;99.90;;;;;;4980631;29;20451;-55
2023/01/29 05:12:54;;;;;;;12.70;6.30;;;1.60;99.90;;;;;;4980108;29;20480;-56
2023/01/29 05:15:26;;;;;;;14.80;5.83;;;1.60;99.90;;;;;;4979609;29;20464;-54
2023/01/29 05:18:00;;;;;;;10.03;5.90;;;1.70;99.90;;;;;;4980168;29;20435;-58
2023/01/29 05:20:31;;;;;;;12.73;6.03;;;1.70;99.90;;;;;;4979807;29;20420;-60
2023/01/29 05:22:58;;;;;;;9.77;5.50;;;1.70;99.90;;;;;;4980248;29;20463;-53
2023/01/29 05:25:29;;;;;;;12.10;5.20;;;1.70;99.90;;;;;;4980255;29;20432;-57
2023/01/29 05:28:04;;;;;;;12.43;6.00;;;1.70;99.90;;;;;;4979756;29;20488;-57
2023/01/29 05:30:36;;;;;;;13.90;7.53;;;1.70;99.90;;;;;;4979656;29;20527;-57
2023/01/29 05:33:03;;;;;;;10.87;7.20;;;1.70;99.90;;;;;;4979576;28;20472;-53
2023/01/29 05:35:31;;;;;;;14.20;8.10;;;1.70;99.90;;;;;;4979407;29;20470;-59
2023/01/29 05:37:58;;;;;;;14.90;6.50;;;1.60;99.90;;;;;;4979760;29;20448;-57
2023/01/29 05:40:25;;;;;;;13.53;5.70;;;1.60;99.90;;;;;;4979881;29;20518;-55
2023/01/29 05:42:52;;;;;;;10.13;6.00;;;1.50;99.90;;;;;;4979453;29;20479;-55
2023/01/29 05:45:19;;;;;;;22.97;8.77;;;1.60;99.90;;;;;;4979738;29;20483;-54
2023/01/29 05:47:47;;;;;;;10.43;6.30;;;1.60;99.90;;;;;;4979057;29;20448;-59
2023/01/29 05:50:15;;;;;;;8.13;4.87;;;1.60;99.90;;;;;;4977082;29;20459;-58
2023/01/29 05:52:43;;;;;;;9.13;5.70;;;1.50;99.90;;;;;;4968062;29;20531;-56
2023/01/29 05:55:11;;;;;;;10.53;6.40;;;1.60;99.90;;;;;;4964650;29;20447;-53
2023/01/29 05:57:39;;;;;;;13.17;7.43;;;1.60;99.90;;;;;;4964855;29;20468;-58
2023/01/29 06:00:07;;;;;;;9.60;7.30;;;1.60;99.90;;;;;;4965091;29;20498;-57
2023/01/29 06:02:35;;;;;;;16.00;6.97;;;1.60;99.90;;;;;;4965288;29;20444;-56
2023/01/29 06:05:02;;;;;;;13.00;6.90;;;1.60;99.90;;;;;;4965258;29;20540;-51
2023/01/29 06:07:29;;;;;;;11.77;5.70;;;1.60;99.90;;;;;;4964744;29;20488;-54
2023/01/29 06:09:57;;;;;;;11.13;6.10;;;1.60;99.90;;;;;;4964711;29;20562;-55
2023/01/29 06:12:24;;;;;;;18.17;10.17;;;1.70;99.90;;;;;;4964883;29;20550;-54
2023/01/29 06:14:51;;;;;;;11.03;5.70;;;1.70;99.90;;;;;;4964517;29;20447;-52
2023/01/29 06:17:18;;;;;;;17.43;9.47;;;1.70;99.90;;;;;;4964435;29;20487;-57
2023/01/29 06:19:45;;;;;;;14.23;7.67;;;1.70;99.90;;;;;;4963486;29;20505;-58
2023/01/29 06:22:12;;;;;;;23.13;9.10;;;2.00;99.90;;;;;;4963934;29;20491;-56
2023/01/29 06:24:39;;;;;;;17.10;7.73;;;1.70;99.90;;;;;;4963404;29;20506;-56
2023/01/29 06:27:07;;;;;;;13.90;7.23;;;1.80;99.90;;;;;;4963558;29;20539;-51
2023/01/29 06:29:34;;;;;;;11.50;7.27;;;1.90;99.90;;;;;;4966132;29;20526;-56
2023/01/29 06:32:00;;;;;;;15.40;9.37;;;1.90;99.90;;;;;;4964975;29;20526;-52
2023/01/29 06:34:27;;;;;;;14.13;8.70;;;1.90;99.90;;;;;;4966730;29;20516;-51
2023/01/29 06:36:54;;;;;;;15.30;7.73;;;1.90;99.90;;;;;;4964218;29;20472;-53
2023/01/29 06:39:21;;;;;;;11.50;7.50;;;1.90;99.90;;;;;;4966011;29;20478;-53
2023/01/29 06:41:48;;;;;;;10.30;6.33;;;1.90;99.90;;;;;;4962782;29;20933;-56
2023/01/29 06:44:16;;;;;;;14.97;8.13;;;2.00;99.90;;;;;;4961624;28;20452;-55
2023/01/29 06:46:43;;;;;;;11.97;7.00;;;1.90;99.90;;;;;;4962827;29;21040;-52
2023/01/29 06:49:12;;;;;;;16.67;7.50;;;1.90;99.90;;;;;;4963252;29;20472;-52
2023/01/29 06:51:39;;;;;;;15.80;8.13;;;1.90;99.90;;;;;;4963328;29;20483;-53
2023/01/29 06:54:07;;;;;;;15.60;8.17;;;1.90;99.90;;;;;;4963223;29;20530;-54
2023/01/29 06:56:34;;;;;;;12.10;6.87;;;2.00;99.90;;;;;;4963358;29;20456;-56
2023/01/29 06:59:01;;;;;;;17.10;8.77;;;2.00;99.90;;;;;;4964125;29;20574;-58
2023/01/29 07:01:30;;;;;;;15.13;7.30;;;1.90;99.90;;;;;;4964263;29;20448;-57
2023/01/29 07:03:56;;;;;;;19.43;10.10;;;2.00;99.90;;;;;;4965141;29;20466;-56
2023/01/29 07:06:27;;;;;;;15.53;7.70;;;2.00;99.90;;;;;;4963630;29;20484;-58
2023/01/29 07:08:54;;;;;;;13.93;7.60;;;2.00;99.90;;;;;;4963935;29;20492;-58
2023/01/29 07:11:21;;;;;;;16.63;8.43;;;2.00;99.90;;;;;;4966628;29;20506;-54
2023/01/29 07:13:51;;;;;;;18.40;9.60;;;2.00;99.90;;;;;;4977554;29;20448;-56
2023/01/29 07:16:20;;;;;;;13.20;7.63;;;2.00;99.90;;;;;;4977791;29;20475;-58
2023/01/29 07:18:48;;;;;;;14.10;8.90;;;2.00;99.90;;;;;;4978070;29;20443;-57
2023/01/29 07:21:15;;;;;;;10.87;7.57;;;2.00;99.90;;;;;;4977548;29;20439;-57
2023/01/29 07:23:41;;;;;;;14.13;8.03;;;2.00;99.90;;;;;;4977268;29;20495;-59
2023/01/29 07:26:09;;;;;;;20.60;11.30;;;2.00;99.90;;;;;;4977136;29;20447;-59
2023/01/29 07:28:37;;;;;;;16.70;8.57;;;2.00;99.90;;;;;;4977286;29;20444;-58
2023/01/29 07:31:05;;;;;;;19.07;8.57;;;2.10;99.90;;;;;;4977745;29;20499;-58
2023/01/29 07:33:32;;;;;;;15.43;8.17;;;2.10;99.90;;;;;;4977546;29;21043;-56
2023/01/29 07:36:00;;;;;;;17.53;8.90;;;2.10;99.90;;;;;;4961292;29;20474;-56
2023/01/29 07:38:27;;;;;;;14.60;9.17;;;2.10;99.90;;;;;;4965992;29;20852;-58
2023/01/29 07:40:54;;;;;;;13.53;7.77;;;2.00;99.90;;;;;;4966982;28;20823;-52
2023/01/29 07:43:23;;;;;;;15.20;7.67;;;2.10;99.90;;;;;;4961312;29;20496;-55
2023/01/29 07:45:50;;;;;;;18.53;9.70;;;2.10;99.90;;;;;;4963515;29;20796;-57
2023/01/29 07:48:17;;;;;;;19.17;10.53;;;2.00;99.90;;;;;;4963381;29;20953;-57
2023/01/29 07:50:44;;;;;;;13.27;6.50;;;2.00;99.90;;;;;;4963708;29;20447;-57
2023/01/29 07:53:14;;;;;;;20.03;10.17;;;2.00;99.90;;;;;;4963830;29;20625;-53
2023/01/29 07:55:43;;;;;;;17.43;8.00;;;2.00;99.90;;;;;;4962892;28;20452;-55
2023/01/29 07:58:11;;;;;;;17.10;9.10;;;2.00;99.90;;;;;;4966245;29;20451;-53
2023/01/29 08:00:38;;;;;;;15.43;8.57;;;2.00;99.90;;;;;;4967125;29;20536;-54
2023/01/29 08:03:06;;;;;;;15.10;8.43;;;2.00;99.90;;;;;;4968350;29;20490;-57
2023/01/29 08:05:33;;;;;;;22.63;9.17;;;2.00;99.90;;;;;;4967701;29;20532;-58
2023/01/29 08:08:00;;;;;;;14.90;8.10;;;2.00;99.90;;;;;;4967778;29;20488;-55
2023/01/29 08:10:29;;;;;;;15.10;7.50;;;2.00;99.90;;;;;;4967502;29;20503;-59
2023/01/29 08:12:57;;;;;;;19.20;10.40;;;2.00;99.90;;;;;;4967225;29;20530;-59
2023/01/29 08:15:24;;;;;;;18.80;10.10;;;1.90;99.90;;;;;;4966850;29;20535;-55
2023/01/29 08:17:51;;;;;;;17.47;7.53;;;2.00;99.90;;;;;;4966142;29;20448;-54
2023/01/29 08:20:19;;;;;;;14.20;8.63;;;2.00;99.90;;;;;;4966349;29;20475;-51
2023/01/29 08:22:46;;;;;;;18.70;8.63;;;2.00;99.90;;;;;;4967525;29;20527;-53
2023/01/29 08:25:14;;;;;;;15.67;8.43;;;2.00;99.90;;;;;;4965924;29;20458;-55
2023/01/29 08:27:42;;;;;;;13.73;9.23;;;2.00;99.90;;;;;;4965768;29;20891;-57
2023/01/29 08:30:11;;;;;;;21.37;8.70;;;2.10;99.90;;;;;;4964892;29;20494;-59
2023/01/29 08:32:38;;;;;;;15.13;8.93;;;2.10;99.90;;;;;;4965451;29;20487;-57
2023/01/29 08:35:05;;;;;;;23.33;9.90;;;2.20;99.90;;;;;;4965082;29;20486;-54
2023/01/29 08:37:32;;;;;;;27.97;9.67;;;2.20;99.90;;;;;;4964974;29;20451;-57
2023/01/29 08:39:59;;;;;;;16.20;7.77;;;2.20;99.90;;;;;;4964821;29;20486;-55
2023/01/29 08:42:26;;;;;;;18.43;9.10;;;2.20;99.90;;;;;;4965331;29;20447;-58
2023/01/29 08:44:54;;;;;;;17.07;8.77;;;2.20;99.90;;;;;;4965492;29;20452;-58
2023/01/29 08:47:21;;;;;;;15.87;9.00;;;2.30;99.90;;;;;;4965258;29;20522;-58
2023/01/29 08:49:48;;;;;;;12.03;7.13;;;2.30;99.90;;;;;;4965116;29;20471;-55
2023/01/29 08:52:15;;;;;;;21.80;9.33;;;2.30;99.90;;;;;;4965230;29;20518;-55
2023/01/29 08:54:42;;;;;;;18.80;9.17;;;2.30;99.90;;;;;;4964808;29;20486;-53
2023/01/29 08:57:09;;;;;;;19.43;9.30;;;2.40;99.90;;;;;;4964736;29;20458;-54
2023/01/29 08:59:37;;;;;;;18.07;7.10;;;2.30;99.90;;;;;;4965211;29;20487;-53
2023/01/29 09:02:05;;;;;;;17.67;8.20;;;2.30;99.90;;;;;;4966016;29;20474;-54
2023/01/29 09:04:32;;;;;;;14.27;9.00;;;2.40;99.90;;;;;;4964925;29;20448;-51
2023/01/29 09:06:59;;;;;;;14.73;8.13;;;2.40;99.90;;;;;;4965542;28;20506;-57
2023/01/29 09:09:26;;;;;;;17.27;10.70;;;2.30;99.90;;;;;;4965917;29;20443;-55
2023/01/29 09:11:52;;;;;;;14.17;8.00;;;2.30;99.90;;;;;;4965096;29;20976;-56
2023/01/29 09:14:19;;;;;;;27.23;10.63;;;2.30;99.90;;;;;;4964791;29;20514;-59
2023/01/29 09:16:46;;;;;;;16.80;7.97;;;2.30;99.90;;;;;;4965723;29;20452;-55
2023/01/29 09:19:15;;;;;;;21.20;9.57;;;2.30;99.90;;;;;;4965260;29;20464;-56
2023/01/29 09:21:41;;;;;;;15.70;8.00;;;2.30;99.90;;;;;;4965286;29;20476;-55
2023/01/29 09:24:09;;;;;;;23.80;9.03;;;2.30;99.90;;;;;;4965031;29;20471;-57
2023/01/29 09:26:38;;;;;;;16.07;9.10;;;2.30;99.90;;;;;;4964609;29;20510;-56
2023/01/29 09:29:05;;;;;;;18.00;8.90;;;2.40;99.90;;;;;;4963934;29;20507;-57
2023/01/29 09:31:33;;;;;;;15.27;9.70;;;2.40;99.90;;;;;;4963890;29;20905;-56
2023/01/29 09:34:00;;;;;;;17.67;7.80;;;2.50;99.90;;;;;;4965803;29;20860;-54
2023/01/29 09:36:28;;;;;;;18.90;10.27;;;2.60;99.90;;;;;;4965857;29;20518;-58
2023/01/29 09:38:55;;;;;;;16.70;8.40;;;2.60;99.90;;;;;;4965814;29;20913;-58
2023/01/29 09:41:37;;;;;;;14.20;7.93;;;2.60;99.90;;;;;;4972696;29;20472;-54
2023/01/29 09:44:13;;;;;;;16.20;8.50;;;2.60;99.90;;;;;;4972509;29;20444;-57
2023/01/29 09:46:43;;;;;;;21.50;10.00;;;2.70;99.90;;;;;;4972578;29;20424;-57
2023/01/29 09:49:15;;;;;;;20.03;8.40;;;2.70;99.90;;;;;;4971952;29;20444;-57
2023/01/29 09:51:48;;;;;;;17.10;11.00;;;2.70;99.90;;;;;;4972447;29;20456;-60
2023/01/29 09:54:22;;;;;;;16.70;10.47;;;2.80;99.90;;;;;;4972335;29;20495;-59
2023/01/29 09:56:52;;;;;;;18.30;7.63;;;2.80;99.90;;;;;;4973571;29;20451;-56
2023/01/29 09:59:22;;;;;;;15.03;8.80;;;2.80;99.90;;;;;;4972036;29;20523;-59
2023/01/29 10:01:59;;;;;;;20.33;8.50;;;2.90;99.90;;;;;;4972021;29;20471;-58
2023/01/29 10:05:01;;;;;;;15.50;8.80;;;2.90;99.90;;;;;;4972532;29;20442;-57
2023/01/29 10:08:04;;;;;;;17.33;9.43;;;2.90;99.90;;;;;;4963202;29;20455;-57
2023/01/29 10:10:41;;;;;;;15.37;9.20;;;2.90;99.90;;;;;;4972219;29;20837;-59
2023/01/29 10:13:19;;;;;;;18.13;8.50;;;3.00;99.90;;;;;;4971166;29;20516;-56
2023/01/29 10:15:58;;;;;;;11.73;7.43;;;3.10;99.90;;;;;;4968975;29;20468;-57
2023/01/29 10:18:50;;;;;;;22.10;9.40;;;3.20;99.90;;;;;;4969552;29;20482;-56
2023/01/29 10:21:37;;;;;;;13.47;7.60;;;3.30;99.90;;;;;;4969693;29;20432;-56
2023/01/29 10:24:14;;;;;;;18.23;10.60;;;3.40;99.90;;;;;;4969653;29;20480;-56
2023/01/29 10:26:42;;;;;;;18.93;9.80;;;3.40;99.90;;;;;;4970483;29;20440;-58
2023/01/29 10:29:16;;;;;;;24.13;13.10;;;3.50;99.90;;;;;;4970449;29;20506;-59
2023/01/29 10:31:46;;;;;;;12.57;6.47;;;3.70;99.90;;;;;;4972175;29;20515;-58
2023/01/29 10:34:19;;;;;;;14.30;8.20;;;3.80;99.90;;;;;;4971471;29;20447;-58
2023/01/29 10:36:48;;;;;;;14.23;6.10;;;3.80;99.90;;;;;;4971227;29;20436;-57
2023/01/29 10:39:18;;;;;;;13.00;7.30;;;3.80;99.90;;;;;;4971345;29;20775;-54
2023/01/29 10:42:13;;;;;;;13.57;7.20;;;3.90;99.90;;;;;;4970905;29;20531;-57
2023/01/29 10:44:58;;;;;;;13.73;7.53;;;3.80;99.90;;;;;;4967388;29;20447;-59
2023/01/29 10:47:55;;;;;;;13.53;8.40;;;3.90;99.90;;;;;;4969050;29;20488;-57
2023/01/29 10:50:39;;;;;;;15.10;5.83;;;4.00;99.90;;;;;;4970679;29;20428;-57
2023/01/29 10:53:24;;;;;;;13.37;8.93;;;4.00;99.90;;;;;;4969612;29;20502;-56
2023/01/29 10:56:00;;;;;;;13.57;6.93;;;4.00;99.90;;;;;;4970607;29;20466;-60
2023/01/29 10:58:34;;;;;;;12.13;7.60;;;4.00;99.90;;;;;;4969559;29;20476;-58
2023/01/29 11:01:01;;;;;;;12.00;6.30;;;4.00;99.90;;;;;;4969304;29;20436;-55
2023/01/29 11:03:30;;;;;;;15.20;7.10;;;4.00;99.90;;;;;;4969752;29;20488;-55
2023/01/29 11:06:02;;;;;;;16.47;7.10;;;4.00;99.90;;;;;;4969191;29;20454;-55
2023/01/29 11:08:34;;;;;;;18.43;8.93;;;4.00;99.90;;;;;;4966561;29;20499;-54
2023/01/29 11:11:08;;;;;;;10.57;5.93;;;4.10;99.90;;;;;;4965630;29;20432;-55
2023/01/29 11:13:41;;;;;;;16.83;9.67;;;4.20;99.90;;;;;;4966899;29;20506;-55
2023/01/29 11:16:09;;;;;;;11.10;6.60;;;4.20;99.90;;;;;;4968172;29;20442;-57
2023/01/29 11:18:59;;;;;;;17.03;8.27;;;4.20;99.90;;;;;;4968602;29;20444;-54
2023/01/29 11:21:27;;;;;;;10.17;5.67;;;4.20;99.90;;;;;;4969105;29;20440;-54
2023/01/29 11:24:11;;;;;;;11.93;6.13;;;4.20;99.90;;;;;;4969337;29;20444;-55
2023/01/29 11:26:41;;;;;;;12.53;6.07;;;4.20;99.90;;;;;;4969083;29;20432;-53
2023/01/29 11:29:32;;;;;;;11.80;6.23;;;4.20;99.90;;;;;;4969095;29;20440;-56
2023/01/29 11:32:00;;;;;;;11.83;7.10;;;4.20;99.90;;;;;;4961209;28;20571;-57
2023/01/29 11:34:28;;;;;;;10.87;5.37;;;4.20;99.90;;;;;;4968000;29;20479;-56
2023/01/29 11:36:58;;;;;;;10.70;6.30;;;4.20;99.90;;;;;;4967484;29;20499;-54
2023/01/29 11:39:26;;;;;;;12.73;6.60;;;4.20;99.90;;;;;;4969859;29;20448;-60
2023/01/29 11:41:57;;;;;;;11.83;7.23;;;4.20;99.90;;;;;;4968377;29;20511;-56
2023/01/29 11:44:31;;;;;;;9.87;6.73;;;4.20;99.90;;;;;;4967537;29;20527;-53
2023/01/29 11:47:11;;;;;;;10.60;5.70;;;4.20;99.90;;;;;;4957524;29;20506;-57
2023/01/29 11:49:40;;;;;;;12.90;7.80;;;4.20;99.90;;;;;;4956118;29;20443;-59
2023/01/29 11:52:10;;;;;;;9.30;6.03;;;4.20;99.90;;;;;;4956336;29;20502;-56
2023/01/29 11:54:41;;;;;;;12.97;7.30;;;4.20;99.90;;;;;;4956136;29;20447;-56
2023/01/29 11:57:23;;;;;;;10.93;6.13;;;4.30;99.90;;;;;;4956206;29;20443;-57
2023/01/29 11:59:53;;;;;;;11.83;6.77;;;4.30;99.90;;;;;;4956001;29;20484;-54
2023/01/29 12:02:26;;;;;;;12.93;6.17;;;4.40;99.90;;;;;;4956454;29;20456;-53
2023/01/29 12:04:55;;;;;;;14.17;6.67;;;4.40;99.90;;;;;;4956291;29;20813;-56
2023/01/29 12:07:22;;;;;;;8.73;5.73;;;4.50;99.90;;;;;;4956586;29;20462;-59
2023/01/29 12:09:53;;;;;;;10.60;6.53;;;4.50;99.90;;;;;;4957847;29;20566;-58
2023/01/29 12:12:36;;;;;;;12.10;6.53;;;4.40;99.90;;;;;;4956269;29;20432;-58
2023/01/29 12:15:18;;;;;;;14.10;6.00;;;4.40;99.90;;;;;;4955916;29;20476;-57
2023/01/29 12:17:53;;;;;;;10.13;5.70;;;4.40;99.90;;;;;;4956269;29;20511;-57
2023/01/29 12:20:25;;;;;;;12.60;6.83;;;4.40;99.90;;;;;;4955982;29;20498;-57
2023/01/29 12:23:00;;;;;;;12.27;6.60;;;4.40;99.90;;;;;;4955996;29;20464;-57
2023/01/29 12:25:39;;;;;;;12.20;6.37;;;4.50;99.90;;;;;;4955949;29;20431;-60
2023/01/29 12:28:13;;;;;;;6.67;4.40;;;4.60;99.90;;;;;;4955920;29;20800;-58
2023/01/29 12:30:50;;;;;;;10.97;6.37;;;4.60;99.90;;;;;;4956225;29;20452;-56
2023/01/29 12:33:27;;;;;;;14.03;6.80;;;4.70;99.90;;;;;;4955743;29;20525;-59
2023/01/29 12:36:01;;;;;;;14.83;6.27;;;4.80;99.90;;;;;;4956122;29;20491;-58
2023/01/29 12:38:28;;;;;;;14.50;6.70;;;4.60;99.90;;;;;;4955758;29;20511;-56
2023/01/29 12:40:59;;;;;;;10.20;6.50;;;4.60;99.90;;;;;;4956014;29;20934;-58
2023/01/29 12:43:30;;;;;;;12.70;5.97;;;4.60;99.90;;;;;;4957606;28;20579;-57
2023/01/29 12:46:01;;;;;;;13.30;6.67;;;4.60;99.90;;;;;;4959538;29;20742;-59
2023/01/29 12:48:32;;;;;;;13.13;7.13;;;4.60;99.90;;;;;;4960196;29;20440;-54
2023/01/29 12:51:06;;;;;;;10.47;6.63;;;4.60;99.90;;;;;;4959554;29;20528;-52
2023/01/29 12:53:37;;;;;;;12.50;6.17;;;4.60;99.90;;;;;;4959416;29;20664;-57
2023/01/29 12:56:09;;;;;;;12.50;7.00;;;4.50;99.90;;;;;;4959097;29;20468;-53
2023/01/29 12:58:41;;;;;;;15.70;5.90;;;4.40;99.90;;;;;;4958894;29;20516;-53
2023/01/29 13:01:15;;;;;;;11.70;6.80;;;4.30;99.90;;;;;;4958918;29;20535;-54
2023/01/29 13:03:51;;;;;;;8.87;6.33;;;4.20;99.90;;;;;;4958874;29;20428;-57
2023/01/29 13:06:22;;;;;;;15.13;5.63;;;4.20;99.90;;;;;;4958763;29;20558;-55
2023/01/29 13:08:53;;;;;;;9.53;5.87;;;4.20;99.90;;;;;;4959294;29;20531;-56
2023/01/29 13:11:25;;;;;;;7.47;4.60;;;4.20;99.90;;;;;;4959006;29;20542;-53
2023/01/29 13:13:56;;;;;;;15.60;6.50;;;4.20;99.90;;;;;;4959000;29;20467;-56
2023/01/29 13:16:28;;;;;;;13.37;7.07;;;4.30;99.90;;;;;;4961219;29;20433;-55
2023/01/29 13:18:57;;;;;;;13.03;7.60;;;4.30;99.90;;;;;;4958582;29;20436;-58
2023/01/29 13:21:28;;;;;;;11.80;6.47;;;4.40;99.90;;;;;;4958866;29;20452;-55
2023/01/29 13:23:57;;;;;;;10.50;5.93;;;4.40;99.90;;;;;;4958619;29;20495;-57
2023/01/29 13:26:25;;;;;;;22.20;8.77;;;4.30;99.90;;;;;;4958447;29;20952;-55
2023/01/29 13:28:53;;;;;;;12.53;6.63;;;4.30;99.90;;;;;;4958595;29;20483;-56
2023/01/29 13:31:33;;;;;;;12.90;7.13;;;4.30;99.90;;;;;;4958692;29;20842;-58
2023/01/29 13:34:09;;;;;;;14.43;9.00;;;4.40;99.90;;;;;;4958484;29;20523;-55
2023/01/29 13:36:42;;;;;;;11.70;5.33;;;4.40;99.90;;;;;;4958325;29;20468;-58
2023/01/29 13:39:19;;;;;;;13.70;7.73;;;4.30;99.90;;;;;;4959100;29;20451;-59
2023/01/29 13:41:46;;;;;;;13.87;7.10;;;4.30;99.90;;;;;;4958511;29;20519;-58
2023/01/29 13:44:22;;;;;;;10.27;6.27;;;4.20;99.90;;;;;;4958432;29;20448;-57